Aérodrome :
LOGIN :

S'inscrire | Disclaimer

   EN    FR    IT 

 










Légende :    VFR   VFR Marginal   IFR   IFR Intensif   IFR Très Intensif
Visi : 
Plafond : 
>= 8 km
>= 3000ft
5 à 8 km
1000 à 3000 ft
1500m à 5 km
500 à 1000 ft
800 à 1500m
200 à 500 ft
< 800m
< 200 ft
Symboles :   Orages  Brouillard  Fortes neiges  Fortes précipitations  Vent > 20 kt
SIGMETs :   Divers  Orages  Givrage  Turbulence  Onde Orograph.  Cendres Volcan.







- Altitude de l'aérodrome : 502 ft
- Code IATA : ORK


EICK - Cork

DERNIER METAR :
  • 221800Z 21011KT 9000 -DZ SCT003 BKN005 08/08 Q1014 BECMG 5000

METARs EXPIRÉS :
  • 221730Z 21010KT 9999 -DZ FEW003 BKN005 08/08 Q1014 BECMG 5000
  • 221700Z 21009KT 9999 SCT006 BKN009 BKN025 08/07 Q1014 TEMPO BKN006
  • 221630Z 21008KT 9999 SCT012 BKN022 08/07 Q1015 NOSIG
  • 221600Z 21009KT 9999 FEW016 BKN250 08/07 Q1015 NOSIG
  • 221530Z 23008KT 9999 SCT018 SCT028 BKN250 09/07 Q1014 NOSIG

TAF TAF EICK
Valide du 22 à 18h jusqu'au 23 à 18h UTC


221700Z 2218/2318 21010KT 9999 SCT007 BKN010
BECMG 2218/2221 21015KT 3000 -DZ BKN005
TEMPO 2222/2308 22018G28KT 1200 DZRA BKN002
PROB40
TEMPO 2300/2308 0300 FG BKN001
BECMG 2307/2309 24017G28KT 7000 SCT005 BKN012
BECMG 2309/2312 9999 SCT012 BKN020
Pas de NOTAMs connus pour ce terrain.



MET'MAP, la Météo Aéronautique d'un coup d'oeil ! - Copyright ORBIFLY Décembre 2007 - Disclaimer

ORBIFLY MET'MAP TEAM :

Programmation & Développement : Alexandra Zaïnal
Conception & Développement : Baudouin d'Aumeries
Co-Programmation & Développement : Marc-Olivier Méhu
Soutien technique & logistique : Manuel Goepfert

Contact : metmap@orbifly.com




SOURCES & CREDITS :

   NOAA